sensor_id;sensor_type;location;lat;lon;timestamp;P1;durP1;ratioP1;P2;durP2;ratioP2
9304;SDS011;4690;52.422;13.486;2023-01-05T00:05:33;14.17;;;3.27;;
9304;SDS011;4690;52.422;13.486;2023-01-05T00:07:59;10.53;;;3.17;;
9304;SDS011;4690;52.422;13.486;2023-01-05T00:10:25;9.67;;;3.30;;
9304;SDS011;4690;52.422;13.486;2023-01-05T00:13:09;8.27;;;3.07;;
9304;SDS011;4690;52.422;13.486;2023-01-05T00:15:57;8.33;;;2.70;;
9304;SDS011;4690;52.422;13.486;2023-01-05T00:18:42;13.37;;;2.97;;
9304;SDS011;4690;52.422;13.486;2023-01-05T00:21:26;8.23;;;3.03;;
9304;SDS011;4690;52.422;13.486;2023-01-05T00:24:11;11.67;;;2.90;;
9304;SDS011;4690;52.422;13.486;2023-01-05T00:26:36;12.20;;;3.07;;
9304;SDS011;4690;52.422;13.486;2023-01-05T00:29:02;9.07;;;3.07;;
9304;SDS011;4690;52.422;13.486;2023-01-05T00:31:28;11.67;;;2.90;;
9304;SDS011;4690;52.422;13.486;2023-01-05T00:33:53;10.43;;;3.13;;
9304;SDS011;4690;52.422;13.486;2023-01-05T00:36:19;8.00;;;2.50;;
9304;SDS011;4690;52.422;13.486;2023-01-05T00:38:45;13.00;;;2.73;;
9304;SDS011;4690;52.422;13.486;2023-01-05T00:41:10;10.17;;;3.23;;
9304;SDS011;4690;52.422;13.486;2023-01-05T00:43:36;15.23;;;3.30;;
9304;SDS011;4690;52.422;13.486;2023-01-05T00:46:02;11.07;;;3.10;;
9304;SDS011;4690;52.422;13.486;2023-01-05T00:48:28;11.70;;;3.43;;
9304;SDS011;4690;52.422;13.486;2023-01-05T00:50:53;12.40;;;3.43;;
9304;SDS011;4690;52.422;13.486;2023-01-05T00:53:19;12.37;;;3.17;;
9304;SDS011;4690;52.422;13.486;2023-01-05T00:55:54;15.17;;;3.23;;
9304;SDS011;4690;52.422;13.486;2023-01-05T00:58:23;10.00;;;3.47;;
9304;SDS011;4690;52.422;13.486;2023-01-05T01:00:49;15.67;;;3.93;;
9304;SDS011;4690;52.422;13.486;2023-01-05T01:03:15;12.83;;;3.70;;
9304;SDS011;4690;52.422;13.486;2023-01-05T01:05:41;9.77;;;3.47;;
9304;SDS011;4690;52.422;13.486;2023-01-05T01:08:06;14.80;;;4.03;;
9304;SDS011;4690;52.422;13.486;2023-01-05T01:10:32;11.20;;;3.30;;
9304;SDS011;4690;52.422;13.486;2023-01-05T01:12:58;9.90;;;3.00;;
9304;SDS011;4690;52.422;13.486;2023-01-05T01:15:23;10.43;;;3.10;;
9304;SDS011;4690;52.422;13.486;2023-01-05T01:17:49;10.23;;;3.30;;
9304;SDS011;4690;52.422;13.486;2023-01-05T01:20:15;15.40;;;3.23;;
9304;SDS011;4690;52.422;13.486;2023-01-05T01:22:41;14.30;;;3.10;;
9304;SDS011;4690;52.422;13.486;2023-01-05T01:25:06;11.30;;;3.67;;
9304;SDS011;4690;52.422;13.486;2023-01-05T01:27:33;11.50;;;2.97;;
9304;SDS011;4690;52.422;13.486;2023-01-05T01:29:58;11.03;;;3.13;;
9304;SDS011;4690;52.422;13.486;2023-01-05T01:32:24;10.17;;;2.90;;
9304;SDS011;4690;52.422;13.486;2023-01-05T01:34:50;11.17;;;2.90;;
9304;SDS011;4690;52.422;13.486;2023-01-05T01:37:16;8.73;;;2.73;;
9304;SDS011;4690;52.422;13.486;2023-01-05T01:39:41;10.63;;;2.70;;
9304;SDS011;4690;52.422;13.486;2023-01-05T01:42:14;8.90;;;3.03;;
9304;SDS011;4690;52.422;13.486;2023-01-05T01:44:48;13.03;;;2.97;;
9304;SDS011;4690;52.422;13.486;2023-01-05T01:50:12;14.93;;;3.03;;
9304;SDS011;4690;52.422;13.486;2023-01-05T01:52:50;10.40;;;3.23;;
9304;SDS011;4690;52.422;13.486;2023-01-05T01:55:22;11.10;;;2.90;;
9304;SDS011;4690;52.422;13.486;2023-01-05T01:57:49;8.33;;;2.70;;
9304;SDS011;4690;52.422;13.486;2023-01-05T02:00:16;13.77;;;3.00;;
9304;SDS011;4690;52.422;13.486;2023-01-05T02:02:47;10.40;;;2.70;;
9304;SDS011;4690;52.422;13.486;2023-01-05T02:05:16;10.40;;;2.90;;
9304;SDS011;4690;52.422;13.486;2023-01-05T02:07:47;12.53;;;3.10;;
9304;SDS011;4690;52.422;13.486;2023-01-05T02:10:15;6.80;;;2.33;;
9304;SDS011;4690;52.422;13.486;2023-01-05T02:18:49;8.03;;;2.80;;
9304;SDS011;4690;52.422;13.486;2023-01-05T02:22:00;8.93;;;2.70;;
9304;SDS011;4690;52.422;13.486;2023-01-05T02:30:56;7.20;;;2.37;;
9304;SDS011;4690;52.422;13.486;2023-01-05T02:39:27;10.70;;;2.60;;
9304;SDS011;4690;52.422;13.486;2023-01-05T02:42:16;5.53;;;2.50;;
9304;SDS011;4690;52.422;13.486;2023-01-05T02:44:51;8.53;;;2.67;;
9304;SDS011;4690;52.422;13.486;2023-01-05T02:49:50;7.50;;;2.43;;
9304;SDS011;4690;52.422;13.486;2023-01-05T02:52:25;7.87;;;2.33;;
9304;SDS011;4690;52.422;13.486;2023-01-05T02:55:01;5.60;;;2.10;;
9304;SDS011;4690;52.422;13.486;2023-01-05T02:57:34;10.60;;;2.60;;
9304;SDS011;4690;52.422;13.486;2023-01-05T03:02:54;5.53;;;2.40;;
9304;SDS011;4690;52.422;13.486;2023-01-05T03:05:27;7.90;;;2.30;;
9304;SDS011;4690;52.422;13.486;2023-01-05T03:08:03;5.97;;;2.30;;
9304;SDS011;4690;52.422;13.486;2023-01-05T03:10:35;7.97;;;2.27;;
9304;SDS011;4690;52.422;13.486;2023-01-05T03:13:35;6.40;;;2.47;;
9304;SDS011;4690;52.422;13.486;2023-01-05T03:16:07;7.30;;;2.57;;
9304;SDS011;4690;52.422;13.486;2023-01-05T03:18:39;10.17;;;2.20;;
9304;SDS011;4690;52.422;13.486;2023-01-05T03:21:24;8.37;;;2.57;;
9304;SDS011;4690;52.422;13.486;2023-01-05T03:23:52;7.73;;;2.47;;
9304;SDS011;4690;52.422;13.486;2023-01-05T03:26:40;6.97;;;2.47;;
9304;SDS011;4690;52.422;13.486;2023-01-05T03:29:26;5.83;;;2.20;;
9304;SDS011;4690;52.422;13.486;2023-01-05T03:32:32;6.37;;;2.03;;
9304;SDS011;4690;52.422;13.486;2023-01-05T03:35:21;5.60;;;2.03;;
9304;SDS011;4690;52.422;13.486;2023-01-05T03:40:59;8.00;;;2.50;;
9304;SDS011;4690;52.422;13.486;2023-01-05T03:43:32;6.80;;;2.10;;
9304;SDS011;4690;52.422;13.486;2023-01-05T03:46:00;5.27;;;2.17;;
9304;SDS011;4690;52.422;13.486;2023-01-05T03:48:34;6.23;;;2.00;;
9304;SDS011;4690;52.422;13.486;2023-01-05T03:51:00;4.77;;;2.20;;
9304;SDS011;4690;52.422;13.486;2023-01-05T03:53:26;4.90;;;1.80;;
9304;SDS011;4690;52.422;13.486;2023-01-05T03:55:52;3.80;;;1.73;;
9304;SDS011;4690;52.422;13.486;2023-01-05T03:58:18;5.13;;;1.87;;
9304;SDS011;4690;52.422;13.486;2023-01-05T04:00:43;4.13;;;1.87;;
9304;SDS011;4690;52.422;13.486;2023-01-05T04:03:09;3.80;;;1.90;;
9304;SDS011;4690;52.422;13.486;2023-01-05T04:05:35;4.47;;;1.83;;
9304;SDS011;4690;52.422;13.486;2023-01-05T04:08:01;5.17;;;2.20;;
9304;SDS011;4690;52.422;13.486;2023-01-05T04:10:30;6.60;;;2.13;;
9304;SDS011;4690;52.422;13.486;2023-01-05T04:12:56;4.90;;;1.97;;
9304;SDS011;4690;52.422;13.486;2023-01-05T04:15:21;5.57;;;2.13;;
9304;SDS011;4690;52.422;13.486;2023-01-05T04:17:47;4.03;;;1.90;;
9304;SDS011;4690;52.422;13.486;2023-01-05T04:20:13;4.80;;;1.97;;
9304;SDS011;4690;52.422;13.486;2023-01-05T04:22:39;7.77;;;2.33;;
9304;SDS011;4690;52.422;13.486;2023-01-05T04:25:05;3.47;;;1.70;;
9304;SDS011;4690;52.422;13.486;2023-01-05T04:27:32;4.70;;;1.80;;
9304;SDS011;4690;52.422;13.486;2023-01-05T04:29:57;4.80;;;1.63;;
9304;SDS011;4690;52.422;13.486;2023-01-05T04:32:23;5.83;;;2.10;;
9304;SDS011;4690;52.422;13.486;2023-01-05T04:34:49;6.33;;;2.10;;
9304;SDS011;4690;52.422;13.486;2023-01-05T04:37:15;6.73;;;2.00;;
9304;SDS011;4690;52.422;13.486;2023-01-05T04:39:41;4.87;;;2.20;;
9304;SDS011;4690;52.422;13.486;2023-01-05T04:42:06;5.60;;;1.83;;
9304;SDS011;4690;52.422;13.486;2023-01-05T04:44:32;5.10;;;2.00;;
9304;SDS011;4690;52.422;13.486;2023-01-05T04:46:58;5.27;;;1.90;;
9304;SDS011;4690;52.422;13.486;2023-01-05T04:49:24;5.63;;;1.77;;
9304;SDS011;4690;52.422;13.486;2023-01-05T04:51:49;5.37;;;2.00;;
9304;SDS011;4690;52.422;13.486;2023-01-05T04:54:15;2.57;;;1.43;;
9304;SDS011;4690;52.422;13.486;2023-01-05T04:56:41;3.93;;;2.03;;
9304;SDS011;4690;52.422;13.486;2023-01-05T04:59:07;4.87;;;1.70;;
9304;SDS011;4690;52.422;13.486;2023-01-05T05:01:33;5.63;;;2.00;;
9304;SDS011;4690;52.422;13.486;2023-01-05T05:03:58;4.00;;;2.00;;
9304;SDS011;4690;52.422;13.486;2023-01-05T05:06:24;7.17;;;2.10;;
9304;SDS011;4690;52.422;13.486;2023-01-05T05:08:50;6.80;;;2.03;;
9304;SDS011;4690;52.422;13.486;2023-01-05T05:11:16;8.63;;;2.23;;
9304;SDS011;4690;52.422;13.486;2023-01-05T05:13:42;6.47;;;2.30;;
9304;SDS011;4690;52.422;13.486;2023-01-05T05:16:07;5.67;;;2.60;;
9304;SDS011;4690;52.422;13.486;2023-01-05T05:18:33;9.97;;;3.00;;
9304;SDS011;4690;52.422;13.486;2023-01-05T05:20:59;7.23;;;2.70;;
9304;SDS011;4690;52.422;13.486;2023-01-05T05:23:25;8.60;;;2.57;;
9304;SDS011;4690;52.422;13.486;2023-01-05T05:25:51;7.30;;;2.70;;
9304;SDS011;4690;52.422;13.486;2023-01-05T05:28:18;9.83;;;3.10;;
9304;SDS011;4690;52.422;13.486;2023-01-05T05:30:47;9.37;;;3.00;;
9304;SDS011;4690;52.422;13.486;2023-01-05T05:33:13;8.83;;;2.97;;
9304;SDS011;4690;52.422;13.486;2023-01-05T05:35:40;13.37;;;3.23;;
9304;SDS011;4690;52.422;13.486;2023-01-05T05:38:06;10.23;;;2.90;;
9304;SDS011;4690;52.422;13.486;2023-01-05T05:40:31;11.57;;;3.53;;
9304;SDS011;4690;52.422;13.486;2023-01-05T05:42:57;11.10;;;2.70;;
9304;SDS011;4690;52.422;13.486;2023-01-05T05:45:23;9.43;;;3.17;;
9304;SDS011;4690;52.422;13.486;2023-01-05T05:47:49;8.83;;;2.80;;
9304;SDS011;4690;52.422;13.486;2023-01-05T05:50:14;10.10;;;3.20;;
9304;SDS011;4690;52.422;13.486;2023-01-05T05:52:40;9.00;;;2.83;;
9304;SDS011;4690;52.422;13.486;2023-01-05T05:55:06;11.63;;;2.70;;
9304;SDS011;4690;52.422;13.486;2023-01-05T05:57:32;6.30;;;2.70;;
9304;SDS011;4690;52.422;13.486;2023-01-05T05:59:58;9.00;;;2.73;;
9304;SDS011;4690;52.422;13.486;2023-01-05T06:02:24;5.77;;;2.70;;
9304;SDS011;4690;52.422;13.486;2023-01-05T06:04:50;9.40;;;2.50;;
9304;SDS011;4690;52.422;13.486;2023-01-05T06:07:15;7.00;;;2.40;;
9304;SDS011;4690;52.422;13.486;2023-01-05T06:09:41;5.23;;;2.77;;
9304;SDS011;4690;52.422;13.486;2023-01-05T06:12:07;7.87;;;2.70;;
9304;SDS011;4690;52.422;13.486;2023-01-05T06:14:33;8.30;;;2.57;;
9304;SDS011;4690;52.422;13.486;2023-01-05T06:16:58;7.87;;;2.53;;
9304;SDS011;4690;52.422;13.486;2023-01-05T06:19:24;4.30;;;2.10;;
9304;SDS011;4690;52.422;13.486;2023-01-05T06:21:50;8.93;;;2.53;;
9304;SDS011;4690;52.422;13.486;2023-01-05T06:24:16;9.07;;;2.47;;
9304;SDS011;4690;52.422;13.486;2023-01-05T06:26:42;7.67;;;2.53;;
9304;SDS011;4690;52.422;13.486;2023-01-05T06:29:09;9.57;;;2.60;;
9304;SDS011;4690;52.422;13.486;2023-01-05T06:31:35;9.53;;;2.50;;
9304;SDS011;4690;52.422;13.486;2023-01-05T06:34:01;8.60;;;2.60;;
9304;SDS011;4690;52.422;13.486;2023-01-05T06:36:27;7.07;;;2.43;;
9304;SDS011;4690;52.422;13.486;2023-01-05T06:38:53;10.53;;;2.43;;
9304;SDS011;4690;52.422;13.486;2023-01-05T06:41:19;5.17;;;2.13;;
9304;SDS011;4690;52.422;13.486;2023-01-05T06:43:44;8.30;;;2.10;;
9304;SDS011;4690;52.422;13.486;2023-01-05T06:46:10;4.33;;;2.13;;
9304;SDS011;4690;52.422;13.486;2023-01-05T06:48:36;6.20;;;2.00;;
9304;SDS011;4690;52.422;13.486;2023-01-05T06:51:02;5.80;;;2.50;;
9304;SDS011;4690;52.422;13.486;2023-01-05T06:53:28;4.80;;;1.90;;
9304;SDS011;4690;52.422;13.486;2023-01-05T06:55:53;3.70;;;1.63;;
9304;SDS011;4690;52.422;13.486;2023-01-05T06:58:19;3.77;;;1.97;;
9304;SDS011;4690;52.422;13.486;2023-01-05T07:00:45;4.90;;;1.87;;
9304;SDS011;4690;52.422;13.486;2023-01-05T07:03:12;3.90;;;1.80;;
9304;SDS011;4690;52.422;13.486;2023-01-05T07:05:39;4.93;;;2.10;;
9304;SDS011;4690;52.422;13.486;2023-01-05T07:08:05;3.20;;;1.80;;
9304;SDS011;4690;52.422;13.486;2023-01-05T07:10:31;5.03;;;1.70;;
9304;SDS011;4690;52.422;13.486;2023-01-05T07:12:57;3.87;;;1.63;;
9304;SDS011;4690;52.422;13.486;2023-01-05T07:15:22;3.13;;;1.53;;
9304;SDS011;4690;52.422;13.486;2023-01-05T07:17:48;5.27;;;1.80;;
9304;SDS011;4690;52.422;13.486;2023-01-05T07:20:14;2.87;;;1.60;;
9304;SDS011;4690;52.422;13.486;2023-01-05T07:22:39;2.07;;;1.60;;
9304;SDS011;4690;52.422;13.486;2023-01-05T07:25:05;4.77;;;1.80;;
9304;SDS011;4690;52.422;13.486;2023-01-05T07:27:32;4.87;;;1.60;;
9304;SDS011;4690;52.422;13.486;2023-01-05T07:29:58;2.23;;;1.50;;
9304;SDS011;4690;52.422;13.486;2023-01-05T07:32:24;2.10;;;1.57;;
9304;SDS011;4690;52.422;13.486;2023-01-05T07:34:50;4.87;;;1.50;;
9304;SDS011;4690;52.422;13.486;2023-01-05T07:37:16;5.27;;;1.60;;
9304;SDS011;4690;52.422;13.486;2023-01-05T07:39:41;2.53;;;1.37;;
9304;SDS011;4690;52.422;13.486;2023-01-05T07:42:07;1.70;;;1.40;;
9304;SDS011;4690;52.422;13.486;2023-01-05T07:44:33;2.93;;;1.33;;
9304;SDS011;4690;52.422;13.486;2023-01-05T07:46:58;2.53;;;1.40;;
9304;SDS011;4690;52.422;13.486;2023-01-05T07:49:25;3.63;;;1.50;;
9304;SDS011;4690;52.422;13.486;2023-01-05T07:51:51;2.00;;;1.10;;
9304;SDS011;4690;52.422;13.486;2023-01-05T07:54:17;1.70;;;1.20;;
9304;SDS011;4690;52.422;13.486;2023-01-05T07:56:42;4.90;;;1.70;;
9304;SDS011;4690;52.422;13.486;2023-01-05T07:59:08;2.60;;;1.10;;
9304;SDS011;4690;52.422;13.486;2023-01-05T08:01:34;1.93;;;1.20;;
9304;SDS011;4690;52.422;13.486;2023-01-05T08:04:00;2.37;;;1.00;;
9304;SDS011;4690;52.422;13.486;2023-01-05T08:06:25;1.90;;;1.40;;
9304;SDS011;4690;52.422;13.486;2023-01-05T08:08:51;1.30;;;1.20;;
9304;SDS011;4690;52.422;13.486;2023-01-05T08:11:17;1.30;;;1.00;;
9304;SDS011;4690;52.422;13.486;2023-01-05T08:13:46;1.97;;;1.20;;
9304;SDS011;4690;52.422;13.486;2023-01-05T08:16:24;3.67;;;1.20;;
9304;SDS011;4690;52.422;13.486;2023-01-05T08:18:51;1.47;;;1.30;;
9304;SDS011;4690;52.422;13.486;2023-01-05T08:21:18;1.10;;;1.00;;
9304;SDS011;4690;52.422;13.486;2023-01-05T08:23:44;1.87;;;1.13;;
9304;SDS011;4690;52.422;13.486;2023-01-05T08:26:14;2.33;;;1.13;;
9304;SDS011;4690;52.422;13.486;2023-01-05T08:28:43;1.37;;;1.00;;
9304;SDS011;4690;52.422;13.486;2023-01-05T08:31:11;1.10;;;1.00;;
9304;SDS011;4690;52.422;13.486;2023-01-05T08:33:38;1.80;;;1.03;;
9304;SDS011;4690;52.422;13.486;2023-01-05T08:36:08;1.23;;;1.00;;
9304;SDS011;4690;52.422;13.486;2023-01-05T08:38:44;1.73;;;1.10;;
9304;SDS011;4690;52.422;13.486;2023-01-05T08:41:21;1.17;;;1.00;;
9304;SDS011;4690;52.422;13.486;2023-01-05T08:43:52;2.77;;;1.17;;
9304;SDS011;4690;52.422;13.486;2023-01-05T08:46:22;1.40;;;1.23;;
9304;SDS011;4690;52.422;13.486;2023-01-05T08:48:51;2.97;;;1.50;;
9304;SDS011;4690;52.422;13.486;2023-01-05T08:51:21;1.73;;;0.93;;
9304;SDS011;4690;52.422;13.486;2023-01-05T08:53:47;1.90;;;1.07;;
9304;SDS011;4690;52.422;13.486;2023-01-05T08:56:17;1.20;;;1.00;;
9304;SDS011;4690;52.422;13.486;2023-01-05T08:58:43;1.17;;;1.00;;
9304;SDS011;4690;52.422;13.486;2023-01-05T09:01:10;2.73;;;1.20;;
9304;SDS011;4690;52.422;13.486;2023-01-05T09:03:39;1.73;;;1.20;;
9304;SDS011;4690;52.422;13.486;2023-01-05T09:06:06;2.50;;;0.87;;
9304;SDS011;4690;52.422;13.486;2023-01-05T09:08:35;2.60;;;0.90;;
9304;SDS011;4690;52.422;13.486;2023-01-05T09:11:07;1.23;;;1.13;;
9304;SDS011;4690;52.422;13.486;2023-01-05T09:13:45;1.30;;;1.10;;
9304;SDS011;4690;52.422;13.486;2023-01-05T09:16:17;1.73;;;1.20;;
9304;SDS011;4690;52.422;13.486;2023-01-05T09:18:47;2.20;;;1.10;;
9304;SDS011;4690;52.422;13.486;2023-01-05T09:21:13;2.70;;;1.03;;
9304;SDS011;4690;52.422;13.486;2023-01-05T09:23:40;1.43;;;0.90;;
9304;SDS011;4690;52.422;13.486;2023-01-05T09:26:07;1.40;;;1.10;;
9304;SDS011;4690;52.422;13.486;2023-01-05T09:28:35;2.40;;;1.20;;
9304;SDS011;4690;52.422;13.486;2023-01-05T09:31:05;2.40;;;1.40;;
9304;SDS011;4690;52.422;13.486;2023-01-05T09:33:38;2.30;;;1.20;;
9304;SDS011;4690;52.422;13.486;2023-01-05T09:36:05;2.53;;;1.10;;
9304;SDS011;4690;52.422;13.486;2023-01-05T09:38:33;2.13;;;1.20;;
9304;SDS011;4690;52.422;13.486;2023-01-05T09:41:01;1.07;;;0.97;;
9304;SDS011;4690;52.422;13.486;2023-01-05T09:43:59;3.03;;;1.30;;
9304;SDS011;4690;52.422;13.486;2023-01-05T09:46:41;2.53;;;1.17;;
9304;SDS011;4690;52.422;13.486;2023-01-05T09:49:13;2.60;;;1.27;;
9304;SDS011;4690;52.422;13.486;2023-01-05T09:51:42;2.77;;;1.30;;
9304;SDS011;4690;52.422;13.486;2023-01-05T09:54:15;2.17;;;1.23;;
9304;SDS011;4690;52.422;13.486;2023-01-05T09:56:43;2.70;;;1.30;;
9304;SDS011;4690;52.422;13.486;2023-01-05T10:02:01;4.23;;;1.47;;
9304;SDS011;4690;52.422;13.486;2023-01-05T10:04:38;3.30;;;1.30;;
9304;SDS011;4690;52.422;13.486;2023-01-05T10:07:06;2.43;;;1.27;;
9304;SDS011;4690;52.422;13.486;2023-01-05T10:09:44;2.83;;;1.60;;
9304;SDS011;4690;52.422;13.486;2023-01-05T10:15:21;4.30;;;1.40;;
9304;SDS011;4690;52.422;13.486;2023-01-05T10:17:47;2.67;;;1.33;;
9304;SDS011;4690;52.422;13.486;2023-01-05T10:31:18;3.07;;;1.30;;
9304;SDS011;4690;52.422;13.486;2023-01-05T10:33:56;3.03;;;1.90;;
9304;SDS011;4690;52.422;13.486;2023-01-05T10:37:08;1.90;;;1.23;;
9304;SDS011;4690;52.422;13.486;2023-01-05T10:45:15;3.53;;;1.47;;
9304;SDS011;4690;52.422;13.486;2023-01-05T10:47:44;4.50;;;1.60;;
9304;SDS011;4690;52.422;13.486;2023-01-05T10:53:06;3.87;;;1.53;;
9304;SDS011;4690;52.422;13.486;2023-01-05T10:58:39;2.73;;;1.40;;
9304;SDS011;4690;52.422;13.486;2023-01-05T11:03:48;6.03;;;1.77;;
9304;SDS011;4690;52.422;13.486;2023-01-05T11:06:26;3.87;;;1.40;;
9304;SDS011;4690;52.422;13.486;2023-01-05T11:11:53;3.53;;;1.40;;
9304;SDS011;4690;52.422;13.486;2023-01-05T11:14:21;4.77;;;1.60;;
9304;SDS011;4690;52.422;13.486;2023-01-05T11:16:50;2.80;;;1.27;;
9304;SDS011;4690;52.422;13.486;2023-01-05T11:19:28;4.43;;;1.57;;
9304;SDS011;4690;52.422;13.486;2023-01-05T11:21:59;6.37;;;1.60;;
9304;SDS011;4690;52.422;13.486;2023-01-05T11:24:27;6.57;;;1.70;;
9304;SDS011;4690;52.422;13.486;2023-01-05T11:27:02;2.93;;;1.50;;
9304;SDS011;4690;52.422;13.486;2023-01-05T11:32:45;5.30;;;1.53;;
9304;SDS011;4690;52.422;13.486;2023-01-05T11:35:31;5.37;;;1.77;;
9304;SDS011;4690;52.422;13.486;2023-01-05T11:38:02;3.10;;;1.70;;
9304;SDS011;4690;52.422;13.486;2023-01-05T11:40:29;4.87;;;1.57;;
9304;SDS011;4690;52.422;13.486;2023-01-05T11:42:59;5.50;;;1.50;;
9304;SDS011;4690;52.422;13.486;2023-01-05T11:45:45;4.93;;;1.53;;
9304;SDS011;4690;52.422;13.486;2023-01-05T11:48:28;2.90;;;1.50;;
9304;SDS011;4690;52.422;13.486;2023-01-05T11:50:58;4.33;;;1.63;;
9304;SDS011;4690;52.422;13.486;2023-01-05T11:58:45;4.63;;;2.03;;
9304;SDS011;4690;52.422;13.486;2023-01-05T12:12:38;5.47;;;1.50;;
9304;SDS011;4690;52.422;13.486;2023-01-05T12:21:30;4.20;;;1.50;;
9304;SDS011;4690;52.422;13.486;2023-01-05T12:33:13;5.07;;;1.70;;
9304;SDS011;4690;52.422;13.486;2023-01-05T12:45:19;3.63;;;1.50;;
9304;SDS011;4690;52.422;13.486;2023-01-05T12:50:48;3.93;;;1.30;;
9304;SDS011;4690;52.422;13.486;2023-01-05T12:56:26;3.23;;;1.53;;
9304;SDS011;4690;52.422;13.486;2023-01-05T13:01:40;4.73;;;1.63;;
9304;SDS011;4690;52.422;13.486;2023-01-05T13:04:31;3.83;;;1.50;;
9304;SDS011;4690;52.422;13.486;2023-01-05T13:07:34;2.50;;;1.47;;
9304;SDS011;4690;52.422;13.486;2023-01-05T13:10:11;7.57;;;1.73;;
9304;SDS011;4690;52.422;13.486;2023-01-05T13:13:13;2.83;;;1.30;;
9304;SDS011;4690;52.422;13.486;2023-01-05T13:18:38;3.37;;;1.50;;
9304;SDS011;4690;52.422;13.486;2023-01-05T13:21:14;4.63;;;1.40;;
9304;SDS011;4690;52.422;13.486;2023-01-05T13:23:45;5.07;;;1.87;;
9304;SDS011;4690;52.422;13.486;2023-01-05T13:26:18;4.47;;;2.00;;
9304;SDS011;4690;52.422;13.486;2023-01-05T13:28:46;2.20;;;1.30;;
9304;SDS011;4690;52.422;13.486;2023-01-05T13:55:16;2.70;;;1.60;;
9304;SDS011;4690;52.422;13.486;2023-01-05T13:57:45;3.77;;;1.50;;
9304;SDS011;4690;52.422;13.486;2023-01-05T14:03:20;4.27;;;1.63;;
9304;SDS011;4690;52.422;13.486;2023-01-05T14:05:54;3.80;;;1.50;;
9304;SDS011;4690;52.422;13.486;2023-01-05T14:08:24;4.80;;;1.90;;
9304;SDS011;4690;52.422;13.486;2023-01-05T14:11:15;4.13;;;1.60;;
9304;SDS011;4690;52.422;13.486;2023-01-05T14:27:07;3.60;;;1.70;;
9304;SDS011;4690;52.422;13.486;2023-01-05T14:30:20;5.13;;;1.73;;
9304;SDS011;4690;52.422;13.486;2023-01-05T14:32:34;4.00;;;1.80;;
9304;SDS011;4690;52.422;13.486;2023-01-05T14:37:51;4.50;;;1.90;;
9304;SDS011;4690;52.422;13.486;2023-01-05T14:40:33;2.37;;;1.47;;
9304;SDS011;4690;52.422;13.486;2023-01-05T14:46:11;3.63;;;1.67;;
9304;SDS011;4690;52.422;13.486;2023-01-05T14:49:03;6.37;;;1.80;;
9304;SDS011;4690;52.422;13.486;2023-01-05T14:51:31;5.33;;;2.03;;
9304;SDS011;4690;52.422;13.486;2023-01-05T14:54:00;3.97;;;1.80;;
9304;SDS011;4690;52.422;13.486;2023-01-05T14:56:33;4.07;;;1.60;;
9304;SDS011;4690;52.422;13.486;2023-01-05T15:01:54;3.07;;;1.80;;
9304;SDS011;4690;52.422;13.486;2023-01-05T15:04:32;5.17;;;1.80;;
9304;SDS011;4690;52.422;13.486;2023-01-05T15:12:51;5.83;;;1.93;;
9304;SDS011;4690;52.422;13.486;2023-01-05T15:18:31;2.93;;;1.53;;
9304;SDS011;4690;52.422;13.486;2023-01-05T15:24:36;5.20;;;1.60;;
9304;SDS011;4690;52.422;13.486;2023-01-05T15:30:39;2.47;;;1.30;;
9304;SDS011;4690;52.422;13.486;2023-01-05T15:33:19;3.17;;;1.40;;
9304;SDS011;4690;52.422;13.486;2023-01-05T15:36:15;4.93;;;1.63;;
9304;SDS011;4690;52.422;13.486;2023-01-05T15:38:52;4.30;;;1.80;;
9304;SDS011;4690;52.422;13.486;2023-01-05T15:41:18;3.73;;;1.70;;
9304;SDS011;4690;52.422;13.486;2023-01-05T15:43:46;4.37;;;1.80;;
9304;SDS011;4690;52.422;13.486;2023-01-05T15:46:21;4.63;;;2.20;;
9304;SDS011;4690;52.422;13.486;2023-01-05T15:48:54;5.40;;;1.90;;
9304;SDS011;4690;52.422;13.486;2023-01-05T15:51:24;5.30;;;1.70;;
9304;SDS011;4690;52.422;13.486;2023-01-05T15:53:55;4.53;;;1.77;;
9304;SDS011;4690;52.422;13.486;2023-01-05T15:56:25;4.00;;;1.60;;
9304;SDS011;4690;52.422;13.486;2023-01-05T15:58:58;7.40;;;1.50;;
9304;SDS011;4690;52.422;13.486;2023-01-05T16:01:25;2.23;;;1.60;;
9304;SDS011;4690;52.422;13.486;2023-01-05T16:04:03;3.07;;;1.40;;
9304;SDS011;4690;52.422;13.486;2023-01-05T16:06:37;4.53;;;1.90;;
9304;SDS011;4690;52.422;13.486;2023-01-05T16:09:38;4.03;;;2.00;;
9304;SDS011;4690;52.422;13.486;2023-01-05T16:12:10;4.07;;;1.70;;
9304;SDS011;4690;52.422;13.486;2023-01-05T16:14:47;4.63;;;1.40;;
9304;SDS011;4690;52.422;13.486;2023-01-05T16:17:22;3.33;;;1.60;;
9304;SDS011;4690;52.422;13.486;2023-01-05T16:19:55;4.13;;;1.80;;
9304;SDS011;4690;52.422;13.486;2023-01-05T16:22:33;2.73;;;1.60;;
9304;SDS011;4690;52.422;13.486;2023-01-05T16:25:42;4.20;;;2.00;;
9304;SDS011;4690;52.422;13.486;2023-01-05T16:28:23;2.47;;;1.40;;
9304;SDS011;4690;52.422;13.486;2023-01-05T16:30:51;3.23;;;1.70;;
9304;SDS011;4690;52.422;13.486;2023-01-05T16:33:29;4.17;;;1.60;;
9304;SDS011;4690;52.422;13.486;2023-01-05T16:36:06;3.53;;;1.60;;
9304;SDS011;4690;52.422;13.486;2023-01-05T16:38:39;4.03;;;1.57;;
9304;SDS011;4690;52.422;13.486;2023-01-05T16:41:09;3.10;;;1.67;;
9304;SDS011;4690;52.422;13.486;2023-01-05T16:43:59;3.60;;;1.67;;
9304;SDS011;4690;52.422;13.486;2023-01-05T16:46:34;5.30;;;1.80;;
9304;SDS011;4690;52.422;13.486;2023-01-05T16:49:26;2.70;;;1.67;;
9304;SDS011;4690;52.422;13.486;2023-01-05T16:51:57;3.37;;;1.70;;
9304;SDS011;4690;52.422;13.486;2023-01-05T16:54:29;3.00;;;1.77;;
9304;SDS011;4690;52.422;13.486;2023-01-05T16:57:04;6.40;;;1.60;;
9304;SDS011;4690;52.422;13.486;2023-01-05T16:59:54;2.40;;;1.40;;
9304;SDS011;4690;52.422;13.486;2023-01-05T17:02:33;4.07;;;1.80;;
9304;SDS011;4690;52.422;13.486;2023-01-05T17:05:12;4.47;;;1.93;;
9304;SDS011;4690;52.422;13.486;2023-01-05T17:07:50;5.13;;;1.70;;
9304;SDS011;4690;52.422;13.486;2023-01-05T17:10:31;3.70;;;1.30;;
9304;SDS011;4690;52.422;13.486;2023-01-05T17:13:04;2.80;;;1.63;;
9304;SDS011;4690;52.422;13.486;2023-01-05T17:15:42;3.13;;;1.60;;
9304;SDS011;4690;52.422;13.486;2023-01-05T17:20:54;3.17;;;1.60;;
9304;SDS011;4690;52.422;13.486;2023-01-05T17:23:38;2.47;;;1.63;;
9304;SDS011;4690;52.422;13.486;2023-01-05T17:26:11;3.83;;;1.70;;
9304;SDS011;4690;52.422;13.486;2023-01-05T17:28:47;4.27;;;1.80;;
9304;SDS011;4690;52.422;13.486;2023-01-05T17:31:14;4.27;;;1.70;;
9304;SDS011;4690;52.422;13.486;2023-01-05T17:33:40;3.47;;;1.73;;
9304;SDS011;4690;52.422;13.486;2023-01-05T17:36:06;3.97;;;1.60;;
9304;SDS011;4690;52.422;13.486;2023-01-05T17:38:32;4.50;;;1.70;;
9304;SDS011;4690;52.422;13.486;2023-01-05T17:40:57;3.07;;;1.80;;
9304;SDS011;4690;52.422;13.486;2023-01-05T17:43:23;5.10;;;1.63;;
9304;SDS011;4690;52.422;13.486;2023-01-05T17:45:49;4.27;;;1.87;;
9304;SDS011;4690;52.422;13.486;2023-01-05T17:48:16;3.30;;;1.90;;
9304;SDS011;4690;52.422;13.486;2023-01-05T17:50:42;3.77;;;2.20;;
9304;SDS011;4690;52.422;13.486;2023-01-05T17:53:09;6.80;;;2.50;;
9304;SDS011;4690;52.422;13.486;2023-01-05T17:55:35;4.37;;;2.23;;
9304;SDS011;4690;52.422;13.486;2023-01-05T17:58:02;4.73;;;2.07;;
9304;SDS011;4690;52.422;13.486;2023-01-05T18:00:28;4.47;;;2.13;;
9304;SDS011;4690;52.422;13.486;2023-01-05T18:02:58;4.13;;;2.50;;
9304;SDS011;4690;52.422;13.486;2023-01-05T18:05:25;3.60;;;2.10;;
9304;SDS011;4690;52.422;13.486;2023-01-05T18:07:51;3.00;;;1.97;;
9304;SDS011;4690;52.422;13.486;2023-01-05T18:10:20;3.40;;;1.90;;
9304;SDS011;4690;52.422;13.486;2023-01-05T18:12:49;6.90;;;2.20;;
9304;SDS011;4690;52.422;13.486;2023-01-05T18:15:15;4.70;;;1.83;;
9304;SDS011;4690;52.422;13.486;2023-01-05T18:17:41;5.67;;;3.30;;
9304;SDS011;4690;52.422;13.486;2023-01-05T18:20:08;7.47;;;2.70;;
9304;SDS011;4690;52.422;13.486;2023-01-05T18:22:37;8.17;;;2.30;;
9304;SDS011;4690;52.422;13.486;2023-01-05T18:25:04;7.13;;;2.40;;
9304;SDS011;4690;52.422;13.486;2023-01-05T18:27:30;6.70;;;2.10;;
9304;SDS011;4690;52.422;13.486;2023-01-05T18:29:59;3.63;;;1.80;;
9304;SDS011;4690;52.422;13.486;2023-01-05T18:32:27;3.97;;;1.97;;
9304;SDS011;4690;52.422;13.486;2023-01-05T18:34:53;5.40;;;1.80;;